createdAt,value
2022-08-18T00:01:32.568Z,34.83
2022-08-18T00:08:53.415Z,34.81
2022-08-18T00:15:49.160Z,34.79
2022-08-18T00:22:23.824Z,34.79
2022-08-18T00:29:00.816Z,34.8
2022-08-18T00:35:45.776Z,34.94
2022-08-18T00:42:27.263Z,34.77
2022-08-18T00:49:08.821Z,34.75
2022-08-18T00:55:54.852Z,34.86
2022-08-18T01:02:49.671Z,34.76
2022-08-18T01:09:38.290Z,34.71
2022-08-18T01:16:12.799Z,34.73
2022-08-18T01:22:56.784Z,34.64
2022-08-18T01:29:43.839Z,34.66
2022-08-18T01:36:19.671Z,34.66
2022-08-18T01:42:54.616Z,34.69
2022-08-18T01:50:02.810Z,34.76
2022-08-18T01:56:28.003Z,34.69
2022-08-18T02:03:03.774Z,34.67
2022-08-18T02:09:53.667Z,34.71
2022-08-18T02:16:26.016Z,34.72
2022-08-18T02:23:10.789Z,34.7
2022-08-18T02:29:41.215Z,34.79
2022-08-18T02:36:14.485Z,34.75
2022-08-18T02:42:54.756Z,34.79
2022-08-18T02:49:31.300Z,34.81
2022-08-18T02:55:56.833Z,34.87
2022-08-18T03:02:31.883Z,34.85
2022-08-18T03:09:00.972Z,34.92
2022-08-18T03:15:30.856Z,34.94
2022-08-18T03:22:03.760Z,34.57
2022-08-18T03:28:44.131Z,34.69
2022-08-18T03:35:20.798Z,34.75
2022-08-18T03:42:00.911Z,34.59
2022-08-18T03:48:37.747Z,34.45
2022-08-18T03:55:03.926Z,34.66
2022-08-18T04:01:44.149Z,34.64
2022-08-18T04:08:19.906Z,34.54
2022-08-18T04:14:50.233Z,35.36
2022-08-18T04:21:13.917Z,35.51
2022-08-18T04:27:50.043Z,35.66
2022-08-18T04:34:21.921Z,35.73
2022-08-18T04:41:02.985Z,35.89
2022-08-18T04:47:43.603Z,35.76
2022-08-18T04:54:23.394Z,35.74
2022-08-18T05:01:06.286Z,35.95
2022-08-18T05:07:46.871Z,35.81
2022-08-18T05:14:13.964Z,35.94
2022-08-18T05:20:39.998Z,35.99
2022-08-18T05:27:15.963Z,36
2022-08-18T05:33:48.007Z,36.02
2022-08-18T05:40:38.405Z,36.11
2022-08-18T05:47:19.853Z,35.99
2022-08-18T05:54:03.736Z,36.03
2022-08-18T06:01:00.619Z,36.09
2022-08-18T06:07:55.833Z,36.13
2022-08-18T06:14:44.857Z,36.12
2022-08-18T06:21:43.981Z,36.3
2022-08-18T06:28:40.869Z,36.24
2022-08-18T06:35:46.160Z,36.29
2022-08-18T06:43:02.174Z,36.26
2022-08-18T06:49:57.936Z,36.07
2022-08-18T06:56:58.131Z,36.23
2022-08-18T07:03:53.274Z,36.21
2022-08-18T07:10:42.934Z,36.28
2022-08-18T07:17:42.959Z,36.17
2022-08-18T07:24:42.679Z,36.09
2022-08-18T07:31:25.930Z,35.99
2022-08-18T07:38:38.936Z,35.86
2022-08-18T07:45:34.383Z,36.03
2022-08-18T07:52:36.722Z,35.94
2022-08-18T07:59:38.105Z,36.1
2022-08-18T08:07:20.551Z,36.12
2022-08-18T08:14:17.178Z,35.82
2022-08-18T08:21:27.525Z,35.84
2022-08-18T08:28:31.474Z,35.88
2022-08-18T08:35:48.427Z,35.79
2022-08-18T08:42:42.021Z,35.73
2022-08-18T08:49:54.671Z,35.77
2022-08-18T08:57:10.223Z,35.76
2022-08-18T09:04:12.192Z,35.46
2022-08-18T09:11:15.026Z,35.46
2022-08-18T09:18:37.284Z,35.67
2022-08-18T09:25:33.166Z,35.6
2022-08-18T09:32:39.561Z,35.49
2022-08-18T09:39:56.481Z,35.39
2022-08-18T09:47:09.307Z,35.3
2022-08-18T09:54:13.555Z,35.46
2022-08-18T10:01:06.739Z,35.4
2022-08-18T10:08:03.968Z,35.39
2022-08-18T10:14:53.445Z,35.38
2022-08-18T10:21:41.139Z,35.41
2022-08-18T10:28:37.943Z,35.35
2022-08-18T10:35:33.166Z,35.3
2022-08-18T10:42:32.071Z,35.25
2022-08-18T10:49:28.123Z,34.98
2022-08-18T10:56:33.968Z,35.17
2022-08-18T11:03:50.872Z,35.33
2022-08-18T11:11:06.759Z,35.35
2022-08-18T11:18:11.179Z,35.3
2022-08-18T11:24:55.588Z,35.23
2022-08-18T11:31:38.698Z,35.25
2022-08-18T11:38:34.074Z,35.32
2022-08-18T11:45:23.340Z,35.31
2022-08-18T11:52:12.194Z,35.31
2022-08-18T11:59:15.576Z,35.12
2022-08-18T12:06:30.250Z,35.3
2022-08-18T12:13:27.999Z,35.23
2022-08-18T12:20:12.162Z,35.12
2022-08-18T12:27:01.327Z,35.11
2022-08-18T12:33:48.021Z,35.14
2022-08-18T12:40:19.645Z,35.06
2022-08-18T12:46:48.802Z,34.98
2022-08-18T12:53:18.349Z,35.06
2022-08-18T13:00:19.053Z,34.9
2022-08-18T13:06:59.787Z,34.99
2022-08-18T13:20:05.215Z,34.77
2022-08-18T13:26:33.095Z,34.94
2022-08-18T13:33:34.337Z,34.87
2022-08-18T13:39:52.973Z,34.87
2022-08-18T13:46:31.824Z,34.79
2022-08-18T13:59:53.196Z,34.78
2022-08-18T14:06:24.120Z,34.76
2022-08-18T14:12:57.572Z,34.49
2022-08-18T14:19:24.277Z,34.5
2022-08-18T14:26:02.454Z,34.34
2022-08-18T14:32:36.806Z,34.22
2022-08-18T14:39:24.868Z,34.18
2022-08-18T14:45:53.166Z,34.17
2022-08-18T14:52:24.131Z,34.27
2022-08-18T14:58:49.582Z,34.45
2022-08-18T15:05:25.096Z,34.31
2022-08-18T15:12:03.224Z,34.15
2022-08-18T15:18:35.665Z,34.34
2022-08-18T15:24:58.234Z,34.24
2022-08-18T15:31:49.886Z,34.46
2022-08-18T15:38:32.001Z,34.73
2022-08-18T15:45:13.812Z,34.79
2022-08-18T15:51:45.925Z,34.79
2022-08-18T15:58:26.647Z,34.85
2022-08-18T16:05:14.653Z,34.88
2022-08-18T16:11:51.242Z,34.85
2022-08-18T16:18:29.160Z,34.94
2022-08-18T16:25:04.322Z,35.04
2022-08-18T16:31:27.236Z,34.97
2022-08-18T16:38:04.455Z,34.96
2022-08-18T16:44:41.337Z,34.97
2022-08-18T16:51:03.246Z,35
2022-08-18T16:57:50.736Z,35.03
2022-08-18T17:04:22.265Z,34.98
2022-08-18T17:10:50.912Z,35.06
2022-08-18T17:17:43.310Z,35.1
2022-08-18T17:24:11.465Z,35.12
2022-08-18T17:31:04.310Z,35.14
2022-08-18T17:37:51.802Z,35.14
2022-08-18T17:44:52.490Z,35.19
2022-08-18T17:51:52.529Z,35.13
2022-08-18T17:58:49.305Z,35.17
2022-08-18T18:05:39.238Z,35.24
2022-08-18T18:12:59.448Z,35.28
2022-08-18T18:19:48.268Z,35.29
2022-08-18T18:26:52.422Z,35.39
2022-08-18T18:33:37.402Z,35.15
2022-08-18T18:40:36.454Z,35.18
2022-08-18T18:47:32.691Z,35.27
2022-08-18T18:54:28.435Z,35.3
2022-08-18T19:01:36.915Z,35.34
2022-08-18T19:08:44.547Z,35.33
2022-08-18T19:15:50.451Z,35.47
2022-08-18T19:22:54.494Z,35.53
2022-08-18T19:30:18.315Z,35.34
2022-08-18T19:37:32.299Z,35.56
2022-08-18T19:45:15.191Z,35.72
2022-08-18T19:52:42.967Z,35.7
2022-08-18T19:59:51.191Z,35.78
2022-08-18T20:07:06.922Z,35.83
2022-08-18T20:13:54.874Z,35.75
2022-08-18T20:20:39.354Z,35.79
2022-08-18T20:27:40.420Z,35.69
2022-08-18T20:34:36.458Z,35.51
2022-08-18T20:41:22.987Z,35.39
2022-08-18T20:55:18.409Z,35.83
2022-08-18T21:01:59.348Z,35.71
2022-08-18T21:08:51.866Z,35.86
2022-08-18T21:15:43.462Z,35.96
2022-08-18T21:22:27.564Z,35.93
2022-08-18T21:29:16.801Z,35.95
2022-08-18T21:36:01.656Z,35.91
2022-08-18T21:42:51.324Z,35.84
2022-08-18T21:49:43.510Z,35.94
2022-08-18T21:56:52.893Z,35.97
2022-08-18T22:04:01.465Z,35.91
2022-08-18T22:11:03.046Z,35.84
2022-08-18T22:18:31.496Z,35.78
2022-08-18T22:25:15.914Z,35.81
2022-08-18T22:31:56.646Z,35.79
2022-08-18T22:38:36.625Z,35.74
2022-08-18T22:45:17.512Z,35.72
2022-08-18T22:51:53.526Z,35.75
2022-08-18T22:58:33.911Z,35.79
2022-08-18T23:05:10.901Z,35.79
2022-08-18T23:11:36.584Z,35.8
2022-08-18T23:18:03.944Z,35.73
2022-08-18T23:24:37.710Z,35.74
2022-08-18T23:31:17.518Z,35.77
2022-08-18T23:37:44.666Z,35.73
2022-08-18T23:44:08.746Z,35.72
2022-08-18T23:50:31.954Z,35.76
2022-08-18T23:57:02.446Z,35.73
